Time;durP1;ratioP1;P1;durP2;ratioP2;P2;SDS_P1;SDS_P2;PMS_P1;PMS_P2;Temp;Humidity;BMP_temperature;BMP_pressure;BME280_temperature;BME280_humidity;BME280_pressure;Samples;Min_cycle;Max_cycle;Signal;HPM_P1;HPM_P2
2022/07/19 00:02:05;;;;;;;14.18;6.10;;;;;;;19.62;51.96;99711.42;1739608;82;21513;-41
2022/07/19 00:04:33;;;;;;;13.53;5.85;;;;;;;19.60;52.25;99717.39;1739749;82;21019;-43
2022/07/19 00:06:58;;;;;;;;;;;;;;;19.58;52.36;99718.84;1742279;82;21414;-40
2022/07/19 00:09:25;;;;;;;10.72;6.05;;;;;;;19.55;53.25;99712.44;1739581;81;20143;-39
2022/07/19 00:11:52;;;;;;;13.72;6.97;;;;;;;19.54;52.48;99717.42;1739686;82;21000;-37
2022/07/19 00:14:18;;;;;;;11.18;7.67;;;;;;;19.50;52.32;99710.18;1739751;82;20975;-40
2022/07/19 00:16:44;;;;;;;16.87;8.33;;;;;;;19.50;52.63;99713.31;1739601;82;20995;-41
2022/07/19 00:19:10;;;;;;;18.77;7.90;;;;;;;19.46;52.73;99708.73;1739620;82;20992;-40
2022/07/19 00:21:35;;;;;;;12.82;7.22;;;;;;;19.46;52.94;99714.06;1739496;82;20988;-42
2022/07/19 00:24:01;;;;;;;15.85;7.05;;;;;;;19.47;53.00;99715.77;1739568;82;21055;-41
2022/07/19 00:26:28;;;;;;;12.00;6.30;;;;;;;19.47;53.03;99707.77;1739586;82;20975;-38
2022/07/19 00:28:54;;;;;;;9.25;5.60;;;;;;;19.46;52.91;99711.89;1739733;82;20964;-39
2022/07/19 00:31:22;;;;;;;18.73;6.37;;;;;;;19.45;52.79;99711.55;1739856;81;20999;-41
2022/07/19 00:33:48;;;;;;;13.83;5.80;;;;;;;19.43;52.57;99715.68;1739612;82;20957;-41
2022/07/19 00:36:14;;;;;;;11.48;5.10;;;;;;;19.41;52.69;99709.63;1739565;82;20983;-41
2022/07/19 00:38:39;;;;;;;9.33;5.72;;;;;;;19.41;53.09;99712.30;1739419;81;21446;-37
2022/07/19 00:41:05;;;;;;;10.08;5.62;;;;;;;19.41;53.01;99710.10;1739678;82;21509;-43
2022/07/19 00:43:31;;;;;;;13.83;5.50;;;;;;;19.41;53.01;99705.64;1739648;82;21064;-41
2022/07/19 00:45:58;;;;;;;10.85;5.12;;;;;;;19.40;53.12;99713.27;1739164;81;21020;-42
2022/07/19 00:48:24;;;;;;;10.15;5.35;;;;;;;19.40;53.07;99711.94;1745256;81;21040;-42
2022/07/19 00:50:51;;;;;;;9.50;4.83;;;;;;;19.40;52.86;99715.09;1753635;82;20986;-44
2022/07/19 00:53:18;;;;;;;7.78;4.95;;;;;;;19.37;52.96;99713.52;1753603;82;20991;-41
2022/07/19 00:55:45;;;;;;;8.85;5.40;;;;;;;19.36;53.33;99717.17;1753811;81;21500;-41
2022/07/19 00:58:16;;;;;;;7.83;4.60;;;;;;;19.35;53.01;99712.31;1753734;82;20952;-41
2022/07/19 01:00:41;;;;;;;6.30;4.70;;;;;;;19.34;52.97;99711.97;1726007;82;21480;-42
2022/07/19 01:03:08;;;;;;;11.05;5.17;;;;;;;19.33;52.92;99708.94;1753752;82;20955;-43
2022/07/19 01:05:34;;;;;;;9.53;4.80;;;;;;;19.32;52.74;99707.76;1753623;80;21484;-40
2022/07/19 01:08:01;;;;;;;8.63;4.73;;;;;;;19.33;53.05;99700.09;1753876;82;20986;-41
2022/07/19 01:10:27;;;;;;;9.50;4.75;;;;;;;19.33;52.83;99700.09;1753586;82;20983;-44
2022/07/19 01:12:53;;;;;;;10.93;4.70;;;;;;;19.33;52.68;99697.43;1753841;82;21109;-38
2022/07/19 01:15:24;;;;;;;10.80;4.90;;;;;;;19.34;52.79;99701.80;1753561;81;20976;-40
2022/07/19 01:17:52;;;;;;;9.80;4.80;;;;;;;19.34;52.81;99702.64;1753545;82;20967;-42
2022/07/19 01:20:21;;;;;;;9.80;5.03;;;;;;;19.33;52.79;99710.27;1753707;82;20967;-40
2022/07/19 01:22:47;;;;;;;9.95;4.47;;;;;;;19.31;53.14;99702.05;1753482;81;20967;-41
2022/07/19 01:25:15;;;;;;;17.57;4.77;;;;;;;19.32;53.26;99701.09;1753816;82;20983;-37
2022/07/19 01:27:46;;;;;;;11.43;4.40;;;;;;;19.31;52.91;99697.55;1753604;81;20994;-43
2022/07/19 01:30:15;;;;;;;9.00;4.50;;;;;;;19.32;52.99;99698.42;1753594;82;20963;-41
2022/07/19 01:32:41;;;;;;;8.85;4.95;;;;;;;19.32;53.09;99701.92;1752795;82;21022;-42
2022/07/19 01:35:08;;;;;;;10.13;5.50;;;;;;;19.32;52.98;99701.09;1753551;82;21003;-41
2022/07/19 01:37:36;;;;;;;6.83;4.67;;;;;;;19.32;52.99;99699.76;1753684;82;20998;-44
2022/07/19 01:40:04;;;;;;;9.55;5.22;;;;;;;19.30;53.04;99692.34;1753697;82;20964;-42
2022/07/19 01:42:30;;;;;;;12.63;5.05;;;;;;;19.30;53.02;99695.88;1753510;81;21030;-42
2022/07/19 01:44:56;;;;;;;9.65;5.12;;;;;;;19.29;52.90;99694.67;1753421;82;21061;-37
2022/07/19 01:47:23;;;;;;;8.77;5.37;;;;;;;19.29;53.05;99688.01;1753926;82;21034;-45
2022/07/19 01:49:49;;;;;;;8.28;5.50;;;;;;;19.29;53.23;99693.34;1753602;81;21472;-42
2022/07/19 01:52:15;;;;;;;12.10;5.80;;;;;;;19.28;53.21;99690.31;1753559;82;20994;-39
2022/07/19 01:54:40;;;;;;;10.43;5.80;;;;;;;19.31;53.19;99687.39;1753549;81;21371;-39
2022/07/19 01:57:06;;;;;;;10.68;5.85;;;;;;;19.31;53.00;99692.22;1753537;82;20983;-42
2022/07/19 01:59:32;;;;;;;11.38;5.50;;;;;;;19.32;53.29;99694.42;1753502;82;20987;-45
2022/07/19 02:01:58;;;;;;;12.95;5.17;;;;;;;19.31;53.31;99694.05;1753696;81;21023;-42
2022/07/19 02:04:24;;;;;;;10.82;5.78;;;;;;;19.29;53.14;99695.52;1753551;81;20988;-42
2022/07/19 02:06:49;;;;;;;10.28;5.17;;;;;;;19.30;53.15;99697.22;1753510;81;20994;-42
2022/07/19 02:09:15;;;;;;;10.38;5.08;;;;;;;19.27;53.38;99692.63;1753554;82;20964;-41
2022/07/19 02:11:41;;;;;;;13.72;5.75;;;;;;;19.25;53.35;99693.25;1753667;82;20982;-43
2022/07/19 02:14:09;;;;;;;11.63;4.80;;;;;;;19.22;53.52;99690.84;1753531;82;20987;-43
2022/07/19 02:16:37;;;;;;;11.50;5.00;;;;;;;19.20;53.37;99691.47;1753601;82;20956;-46
2022/07/19 02:19:04;;;;;;;11.48;4.75;;;;;;;19.14;53.45;99693.67;1753535;81;21464;-42
2022/07/19 02:21:31;;;;;;;11.03;5.10;;;;;;;19.11;53.42;99694.41;1753502;82;21043;-46
2022/07/19 02:23:56;;;;;;;12.30;4.90;;;;;;;19.10;53.30;99694.05;1753549;81;21457;-43
2022/07/19 02:26:22;;;;;;;7.95;5.20;;;;;;;19.06;53.47;99685.95;1753541;82;20986;-42
2022/07/19 02:28:48;;;;;;;10.75;4.55;;;;;;;19.04;53.61;99691.41;1753447;81;21031;-41
2022/07/19 02:31:14;;;;;;;12.55;5.17;;;;;;;19.04;53.38;99690.08;1753496;82;20987;-41
2022/07/19 02:33:40;;;;;;;14.85;4.83;;;;;;;19.02;53.42;99687.20;1753514;81;20995;-41
2022/07/19 02:36:06;;;;;;;16.25;4.92;;;;;;;19.00;54.16;99685.98;1753482;82;20979;-38
2022/07/19 02:38:32;;;;;;;8.70;4.50;;;;;;;18.96;54.08;99689.89;1753541;82;20984;-41
2022/07/19 02:40:58;;;;;;;7.85;4.40;;;;;;;18.93;54.18;99690.98;1742380;77;21181;-45
2022/07/19 02:43:24;;;;;;;9.75;4.28;;;;;;;18.90;54.13;99689.92;1704260;83;21045;-38
2022/07/19 02:45:51;;;;;;;12.45;4.20;;;;;;;18.89;53.85;99686.89;1708498;84;21766;-45
2022/07/19 02:48:16;;;;;;;7.97;4.17;;;;;;;18.87;53.83;99692.00;1708685;83;21009;-44
2022/07/19 02:50:42;;;;;;;8.23;4.47;;;;;;;18.84;53.72;99698.91;1708898;83;20950;-43
2022/07/19 02:53:08;;;;;;;10.72;4.58;;;;;;;18.82;53.60;99694.20;1708907;83;20974;-42
2022/07/19 02:55:34;;;;;;;9.78;4.72;;;;;;;18.80;53.60;99699.13;1708907;84;20969;-40
2022/07/19 02:58:00;;;;;;;11.65;4.58;;;;;;;18.79;53.63;99696.12;1708937;83;21025;-45
2022/07/19 03:00:26;;;;;;;7.37;4.22;;;;;;;18.78;53.79;99693.58;1708947;83;21026;-40
2022/07/19 03:02:52;;;;;;;13.85;4.55;;;;;;;18.76;53.81;99694.19;1709077;83;20973;-43
2022/07/19 03:05:18;;;;;;;10.35;4.92;;;;;;;18.75;53.95;99694.66;1708890;84;21486;-45
2022/07/19 03:07:44;;;;;;;16.62;5.15;;;;;;;18.76;53.86;99694.19;1709007;84;21438;-40
2022/07/19 03:10:10;;;;;;;13.50;4.97;;;;;;;18.75;53.95;99691.16;1708915;83;20973;-43
2022/07/19 03:12:36;;;;;;;8.10;4.25;;;;;;;18.73;53.86;99683.28;1708876;84;20981;-44
2022/07/19 03:15:02;;;;;;;9.30;4.45;;;;;;;18.76;53.89;99684.38;1708918;84;20973;-41
2022/07/19 03:17:28;;;;;;;12.18;4.50;;;;;;;18.77;54.09;99687.41;1709036;83;20958;-42
2022/07/19 03:19:54;;;;;;;11.95;5.03;;;;;;;18.78;53.96;99687.75;1708887;83;21630;-45
2022/07/19 03:22:20;;;;;;;8.90;4.65;;;;;;;18.80;54.08;99691.13;1708879;83;21538;-45
2022/07/19 03:24:45;;;;;;;13.85;4.95;;;;;;;18.82;53.87;99690.20;1708960;84;20981;-40
2022/07/19 03:27:11;;;;;;;11.45;6.28;;;;;;;18.83;54.05;99692.74;1708977;83;21527;-40
2022/07/19 03:29:37;;;;;;;13.85;5.85;;;;;;;18.84;53.84;99689.58;1708953;83;21512;-42
2022/07/19 03:32:04;;;;;;;8.83;5.45;;;;;;;18.84;54.03;99694.91;1708925;83;21514;-41
2022/07/19 03:34:29;;;;;;;10.53;6.07;;;;;;;18.86;53.90;99693.80;1709069;84;20992;-40
2022/07/19 03:36:56;;;;;;;15.20;5.70;;;;;;;18.85;53.85;99688.63;1708875;84;20974;-44
2022/07/19 03:39:21;;;;;;;10.45;5.97;;;;;;;18.87;53.81;99685.34;1708885;83;20985;-43
2022/07/19 03:41:47;;;;;;;15.43;5.90;;;;;;;18.87;54.06;99689.34;1708785;84;20982;-42
2022/07/19 03:44:14;;;;;;;11.97;6.10;;;;;;;18.86;54.04;99688.47;1708850;83;20985;-45
2022/07/19 03:46:39;;;;;;;14.78;5.90;;;;;;;18.86;54.12;99695.63;1709094;84;20976;-41
2022/07/19 03:49:05;;;;;;;13.10;5.92;;;;;;;18.85;54.16;99685.46;1708994;84;20998;-42
2022/07/19 03:51:32;;;;;;;8.93;5.15;;;;;;;18.83;54.49;99690.08;1709132;83;21569;-44
2022/07/19 03:53:57;;;;;;;12.37;5.90;;;;;;;18.82;54.64;99687.54;1709328;84;21644;-42
2022/07/19 03:56:23;;;;;;;17.52;5.62;;;;;;;18.80;54.63;99691.13;1709013;83;20973;-38
2022/07/19 03:58:49;;;;;;;16.00;5.45;;;;;;;18.78;54.66;99689.08;1709036;83;20973;-38
2022/07/19 04:01:16;;;;;;;12.93;5.47;;;;;;;18.79;54.53;99680.59;1709033;84;20977;-38
2022/07/19 04:03:42;;;;;;;16.20;6.27;;;;;;;18.82;54.35;99679.55;1709222;83;20978;-40
2022/07/19 04:06:10;;;;;;;8.63;4.78;;;;;;;18.88;54.40;99688.34;1709043;84;20965;-45
2022/07/19 04:08:36;;;;;;;14.85;4.90;;;;;;;18.92;54.33;99681.81;1709094;83;20939;-45
2022/07/19 04:11:04;;;;;;;16.95;5.28;;;;;;;18.96;54.03;99691.23;1709018;83;20981;-43
2022/07/19 04:13:35;;;;;;;7.83;5.12;;;;;;;19.02;54.15;99689.37;1709222;83;20954;-43
2022/07/19 04:16:01;;;;;;;15.08;4.65;;;;;;;19.07;53.97;99689.83;1708960;84;20977;-41
2022/07/19 04:18:27;;;;;;;9.05;4.62;;;;;;;19.13;53.71;99690.63;1709043;83;20973;-46
2022/07/19 04:20:52;;;;;;;10.50;4.53;;;;;;;19.21;53.52;99687.80;1709003;83;20981;-41
2022/07/19 04:23:18;;;;;;;15.55;5.03;;;;;;;19.25;53.07;99698.09;1709025;83;20954;-43
2022/07/19 04:25:44;;;;;;;12.23;4.75;;;;;;;19.29;52.90;99695.52;1709026;83;20984;-44
2022/07/19 04:28:10;;;;;;;11.73;5.10;;;;;;;19.35;52.88;99697.64;1708979;84;20958;-42
2022/07/19 04:30:35;;;;;;;12.73;4.65;;;;;;;19.39;52.97;99696.89;1708949;84;20985;-43
2022/07/19 04:33:01;;;;;;;13.68;4.28;;;;;;;19.44;52.80;99693.84;1709145;83;21021;-43
2022/07/19 04:35:27;;;;;;;8.03;5.00;;;;;;;19.46;52.85;99696.73;1708980;84;20969;-42
2022/07/19 04:37:53;;;;;;;12.03;5.08;;;;;;;19.52;52.59;99698.05;1708975;84;21021;-45
2022/07/19 04:40:19;;;;;;;16.37;4.47;;;;;;;19.55;52.45;99699.09;1709016;83;20990;-38
2022/07/19 04:42:45;;;;;;;8.73;4.17;;;;;;;19.60;52.39;99697.38;1700999;83;21038;-42
2022/07/19 04:45:11;;;;;;;11.05;4.53;;;;;;;19.64;52.21;99694.79;1725800;83;21157;-41
2022/07/19 04:47:36;;;;;;;19.42;4.55;;;;;;;19.68;52.06;99705.08;1693443;85;21421;-47
2022/07/19 04:50:03;;;;;;;10.43;4.60;;;;;;;19.73;51.78;99704.20;1693520;84;21398;-41
2022/07/19 04:52:29;;;;;;;7.30;4.05;;;;;;;19.76;51.52;99708.44;1725978;83;21485;-43
2022/07/19 04:54:55;;;;;;;10.05;4.62;;;;;;;19.80;51.52;99712.52;1693457;85;21019;-37
2022/07/19 04:57:21;;;;;;;12.47;4.30;;;;;;;19.84;51.53;99715.77;1693396;85;21059;-44
2022/07/19 04:59:46;;;;;;;11.15;4.25;;;;;;;19.83;51.58;99706.93;1696444;84;21004;-45
2022/07/19 05:02:12;;;;;;;10.32;4.53;;;;;;;19.83;51.56;99698.92;1696363;84;21036;-43
2022/07/19 05:04:38;;;;;;;13.90;4.70;;;;;;;19.85;51.62;99701.46;1696408;84;21051;-44
2022/07/19 05:07:04;;;;;;;11.40;4.42;;;;;;;19.86;51.43;99703.13;1696364;84;21015;-44
2022/07/19 05:09:30;;;;;;;11.18;4.60;;;;;;;19.89;51.41;99709.05;1696512;84;20992;-43
2022/07/19 05:11:56;;;;;;;16.32;4.20;;;;;;;19.91;50.84;99706.25;1696431;84;21016;-43
2022/07/19 05:14:22;;;;;;;15.23;4.13;;;;;;;19.92;50.83;99699.45;1696547;84;21525;-40
2022/07/19 05:16:51;;;;;;;10.45;4.12;;;;;;;19.96;50.86;99698.69;1696363;84;21731;-47
2022/07/19 05:19:17;;;;;;;12.63;3.92;;;;;;;19.98;50.81;99695.89;1696403;84;21056;-39
2022/07/19 05:21:44;;;;;;;17.05;4.50;;;;;;;20.02;51.03;99693.30;1696692;84;21018;-44
2022/07/19 05:24:09;;;;;;;10.68;4.42;;;;;;;20.05;50.68;99691.70;1696606;84;21545;-48
2022/07/19 05:26:35;;;;;;;13.35;4.17;;;;;;;20.09;50.49;99687.77;1696379;84;21055;-41
2022/07/19 05:29:02;;;;;;;10.48;4.20;;;;;;;20.10;50.38;99687.63;1696338;84;21052;-40
2022/07/19 05:31:29;;;;;;;11.97;3.98;;;;;;;20.12;50.35;99689.67;1696498;84;20988;-47
2022/07/19 05:33:55;;;;;;;12.85;4.03;;;;;;;20.12;50.12;99692.84;1696504;84;21028;-47
2022/07/19 05:36:21;;;;;;;8.98;4.08;;;;;;;20.11;50.02;99686.64;1696480;84;21510;-41
2022/07/19 05:38:47;;;;;;;11.28;4.00;;;;;;;20.12;49.90;99687.50;1696400;84;21028;-40
2022/07/19 05:41:15;;;;;;;9.18;3.65;;;;;;;20.11;49.73;99689.81;1696372;84;21048;-38
2022/07/19 05:43:40;;;;;;;12.85;3.70;;;;;;;20.13;50.17;99689.17;1696411;84;21031;-40
2022/07/19 05:46:06;;;;;;;17.50;4.37;;;;;;;20.14;50.11;99692.22;1696948;84;21505;-40
2022/07/19 05:48:32;;;;;;;13.90;4.30;;;;;;;20.16;49.94;99694.75;1696856;84;20988;-44
2022/07/19 05:50:58;;;;;;;13.48;3.98;;;;;;;20.17;50.21;99697.76;1696867;84;21007;-40
2022/07/19 05:53:27;;;;;;;13.40;4.63;;;;;;;20.17;50.22;99695.09;1697093;84;21053;-40
2022/07/19 05:55:53;;;;;;;12.13;4.20;;;;;;;20.18;50.58;99695.45;1696828;84;21862;-41
2022/07/19 05:58:19;;;;;;;10.55;4.08;;;;;;;20.19;50.61;99697.96;1696800;84;21029;-46
2022/07/19 06:03:31;;;;;;;12.63;3.70;;;;;;;20.26;50.25;99698.27;1696808;84;21003;-40
2022/07/19 06:05:56;;;;;;;16.60;3.98;;;;;;;20.30;49.96;99700.55;1697096;84;21043;-42
2022/07/19 06:08:23;;;;;;;13.50;4.33;;;;;;;20.36;50.00;99692.97;1696893;84;21018;-41
2022/07/19 06:10:49;;;;;;;18.10;4.35;;;;;;;20.41;49.75;99694.24;1697049;84;21015;-44
2022/07/19 06:13:15;;;;;;;16.82;4.70;;;;;;;20.49;50.09;99690.88;1696951;84;21011;-42
2022/07/19 06:15:41;;;;;;;11.25;4.25;;;;;;;20.57;49.84;99690.16;1698851;83;21015;-45
2022/07/19 06:18:07;;;;;;;12.60;4.45;;;;;;;20.62;49.71;99696.81;1698787;83;21593;-43
2022/07/19 06:20:33;;;;;;;12.55;3.83;;;;;;;20.69;49.71;99685.92;1717179;83;21004;-42
2022/07/19 06:22:59;;;;;;;17.95;3.62;;;;;;;20.76;49.51;99694.73;1702426;83;21054;-44
2022/07/19 06:25:25;;;;;;;14.53;3.87;;;;;;;20.83;49.40;99695.82;1695535;83;21051;-45
2022/07/19 06:27:50;;;;;;;14.35;4.10;;;;;;;20.89;49.23;99695.28;1698206;83;21124;-42
2022/07/19 06:30:16;;;;;;;12.63;4.40;;;;;;;20.98;48.88;99692.25;1694647;83;20971;-44
2022/07/19 06:32:42;;;;;;;6.87;3.60;;;;;;;21.05;48.53;99692.88;1691640;84;21410;-44
2022/07/19 06:35:08;;;;;;;8.40;3.52;;;;;;;21.17;48.75;99692.72;1693444;84;20977;-46
2022/07/19 06:37:34;;;;;;;9.93;3.12;;;;;;;21.26;47.06;99701.21;1692333;83;21030;-42
2022/07/19 06:40:00;;;;;;;7.67;3.92;;;;;;;21.35;47.97;99692.83;1692484;84;21607;-40
2022/07/19 06:42:27;;;;;;;6.58;3.83;;;;;;;;;;1689064;84;21109;-42
2022/07/19 06:44:52;;;;;;;10.25;3.50;;;;;;;21.54;47.59;99698.64;1693191;84;21163;-41
2022/07/19 06:47:18;;;;;;;13.78;4.08;;;;;;;21.61;47.67;99695.73;1688571;84;20992;-42
2022/07/19 06:49:44;;;;;;;5.92;3.65;;;;;;;21.70;47.09;99697.52;1707507;84;20972;-40
2022/07/19 06:52:09;;;;;;;9.65;3.75;;;;;;;21.77;47.24;99694.61;1735358;82;20973;-44
2022/07/19 06:54:35;;;;;;;5.70;3.83;;;;;;;21.88;47.30;99694.09;1733818;83;21612;-43
2022/07/19 06:57:01;;;;;;;7.58;4.08;;;;;;;21.93;47.20;99693.98;1733504;82;21436;-44
2022/07/19 06:59:27;;;;;;;9.05;3.47;;;;;;;21.97;46.97;99695.87;1745911;82;21002;-41
2022/07/19 07:01:53;;;;;;;10.23;3.50;;;;;;;22.03;47.41;99692.12;1737651;82;20988;-42
2022/07/19 07:04:19;;;;;;;21.60;4.53;;;;;;;22.12;47.14;99696.22;1719161;82;20998;-41
2022/07/19 07:06:45;;;;;;;7.70;3.12;;;;;;;22.21;47.14;99696.18;1715874;82;21597;-42
2022/07/19 07:09:11;;;;;;;10.23;3.90;;;;;;;22.26;46.63;99696.22;1716767;83;20978;-44
2022/07/19 07:11:36;;;;;;;12.00;3.70;;;;;;;22.33;46.68;99701.36;1727665;82;20960;-43
2022/07/19 07:14:02;;;;;;;8.83;4.10;;;;;;;22.36;46.55;99696.54;1730315;82;21476;-44
2022/07/19 07:16:28;;;;;;;11.73;3.52;;;;;;;22.43;46.43;99704.83;1733689;82;21428;-39
2022/07/19 07:18:54;;;;;;;9.98;3.95;;;;;;;22.46;46.33;99701.82;1739282;82;20951;-39
2022/07/19 07:21:20;;;;;;;11.68;3.75;;;;;;;22.53;46.18;99704.75;1741560;81;20962;-46
2022/07/19 07:23:46;;;;;;;10.28;3.55;;;;;;;22.56;46.10;99703.95;1746707;82;20979;-44
2022/07/19 07:26:11;;;;;;;7.33;3.37;;;;;;;22.61;46.39;99702.14;1732026;82;21021;-40
2022/07/19 07:28:37;;;;;;;7.55;3.40;;;;;;;22.68;46.16;99701.88;1724430;82;21472;-42
2022/07/19 07:31:03;;;;;;;9.25;3.35;;;;;;;22.76;45.79;99700.62;1719060;83;21477;-43
2022/07/19 07:33:29;;;;;;;8.53;3.02;;;;;;;22.82;45.65;99699.16;1726821;82;21066;-43
2022/07/19 07:35:55;;;;;;;7.80;3.72;;;;;;;22.92;45.79;99697.25;1732780;82;21053;-41
2022/07/19 07:38:22;;;;;;;9.50;3.92;;;;;;;23.05;45.59;99704.06;1722409;82;21041;-41
2022/07/19 07:40:48;;;;;;;9.43;3.40;;;;;;;23.11;45.32;99698.94;1726919;82;20979;-41
2022/07/19 07:43:14;;;;;;;14.20;3.67;;;;;;;23.16;45.43;99699.83;1729786;83;21034;-37
2022/07/19 07:45:39;;;;;;;15.15;3.72;;;;;;;23.22;45.23;99696.50;1679589;84;21024;-39
2022/07/19 07:48:06;;;;;;;10.53;3.25;;;;;;;23.29;45.16;99697.56;1660782;85;20992;-40
2022/07/19 07:50:32;;;;;;;5.53;3.10;;;;;;;23.36;44.71;99700.47;1706253;83;21010;-40
2022/07/19 07:52:57;;;;;;;13.80;3.42;;;;;;;23.46;44.73;99701.70;1711608;83;21041;-41
2022/07/19 07:55:23;;;;;;;12.65;3.42;;;;;;;23.53;45.02;99698.72;1689668;84;20975;-46
2022/07/19 07:57:49;;;;;;;8.80;3.27;;;;;;;23.61;44.51;99703.30;1695408;84;21488;-41
2022/07/19 08:00:15;;;;;;;12.90;3.55;;;;;;;23.64;44.27;99704.33;1681532;84;21494;-39
2022/07/19 08:02:43;;;;;;;10.03;3.50;;;;;;;23.69;44.55;99706.88;1723984;82;21036;-38
2022/07/19 08:05:10;;;;;;;11.20;3.17;;;;;;;23.70;43.99;99703.20;1683476;83;20979;-41
2022/07/19 08:07:37;;;;;;;8.00;3.33;;;;;;;23.73;44.03;99702.02;1653770;85;20933;-39
2022/07/19 08:10:07;;;;;;;6.03;3.67;;;;;;;23.74;44.11;99711.27;1693676;84;20974;-47
2022/07/19 08:12:33;;;;;;;9.68;3.30;;;;;;;23.76;44.03;99703.89;1694069;84;21331;-38
2022/07/19 08:14:59;;;;;;;8.03;3.20;;;;;;;23.80;44.19;99709.81;1678810;84;21723;-45
2022/07/19 08:17:25;;;;;;;8.50;3.70;;;;;;;23.68;42.45;99709.20;1681407;83;21333;-39
2022/07/19 08:19:51;;;;;;;13.15;3.50;;;;;;;23.71;43.68;99711.58;1699215;83;21027;-46
2022/07/19 08:22:21;;;;;;;8.03;2.92;;;;;;;23.73;44.18;99714.94;1697067;83;20984;-39
2022/07/19 08:24:46;;;;;;;10.13;3.25;;;;;;;23.74;43.58;99703.72;1688685;83;21076;-44
2022/07/19 08:27:12;;;;;;;16.50;3.62;;;;;;;23.76;43.54;99707.92;1688398;83;21507;-45
2022/07/19 08:29:39;;;;;;;9.85;3.52;;;;;;;23.83;43.38;99708.16;1685442;84;20990;-42
2022/07/19 08:32:05;;;;;;;4.80;3.20;;;;;;;23.89;43.74;99704.82;1693853;83;21527;-41
2022/07/19 08:34:31;;;;;;;7.20;3.40;;;;;;;23.99;43.57;99698.48;1692679;83;21022;-43
2022/07/19 08:36:57;;;;;;;8.40;2.92;;;;;;;24.09;43.02;99693.32;1708736;83;21574;-41
2022/07/19 08:39:23;;;;;;;7.00;3.08;;;;;;;24.29;43.04;99698.43;1681186;84;21537;-45
2022/07/19 08:41:49;;;;;;;8.80;3.03;;;;;;;24.55;42.64;99692.14;1689259;83;20964;-50
2022/07/19 08:44:17;;;;;;;7.62;2.87;;;;;;;24.70;42.41;99685.95;1678861;83;21023;-40
2022/07/19 08:46:43;;;;;;;10.50;3.75;;;;;;;24.83;41.86;99686.80;1689506;84;20969;-40
2022/07/19 08:49:10;;;;;;;6.57;3.30;;;;;;;25.01;41.76;99686.63;1706905;84;21005;-45
2022/07/19 08:51:36;;;;;;;6.45;2.83;;;;;;;25.24;41.31;99690.00;1695337;83;21554;-45
2022/07/19 08:54:03;;;;;;;6.27;3.10;;;;;;;25.46;39.03;99685.75;1707921;83;20985;-52
2022/07/19 08:59:13;;;;;;;5.03;2.85;;;;;;;25.70;38.41;99677.28;1711349;84;20962;-48
2022/07/19 09:01:40;;;;;;;5.95;3.05;;;;;;;25.87;38.53;99681.61;1708881;83;21016;-47
2022/07/19 09:04:20;;;;;;;9.10;2.95;;;;;;;26.06;37.77;99681.71;1687273;84;21304;-44
2022/07/19 09:06:54;;;;;;;6.72;2.95;;;;;;;26.19;35.08;99686.02;1721660;82;20976;-51
2022/07/19 09:09:27;;;;;;;8.55;3.20;;;;;;;26.27;36.59;99673.51;1707424;83;21893;-44
2022/07/19 09:11:55;;;;;;;4.25;3.02;;;;;;;26.50;36.25;99671.68;1722861;83;20921;-44
2022/07/19 09:14:25;;;;;;;6.42;3.40;;;;;;;26.67;34.85;99667.06;1725080;82;21074;-47
2022/07/19 09:16:56;;;;;;;9.63;2.77;;;;;;;26.87;35.42;99662.50;1705108;83;20968;-50
2022/07/19 09:19:25;;;;;;;5.72;2.90;;;;;;;27.10;33.94;99659.26;1724952;83;21155;-44
2022/07/19 09:22:07;;;;;;;4.35;2.92;;;;;;;27.33;32.92;99654.36;1729414;82;20974;-42
2022/07/19 09:24:40;;;;;;;8.38;3.02;;;;;;;27.41;30.78;99651.56;1727331;82;21042;-42
2022/07/19 09:27:13;;;;;;;6.95;3.12;;;;;;;27.74;33.41;99659.29;1726192;83;21023;-52
2022/07/19 09:29:42;;;;;;;4.85;3.27;;;;;;;28.10;32.42;99662.59;1742486;82;20959;-46
2022/07/19 09:32:16;;;;;;;7.25;3.00;;;;;;;28.49;32.31;99665.43;1746662;82;20975;-46
2022/07/19 09:34:55;;;;;;;3.60;3.02;;;;;;;28.87;31.14;99666.52;1724219;83;20917;-44
2022/07/19 09:37:28;;;;;;;3.40;2.62;;;;;;;29.15;28.41;99657.11;1728571;82;20996;-41
2022/07/19 09:39:58;;;;;;;5.25;2.83;;;;;;;29.51;27.87;99658.83;1704346;82;20976;-43
2022/07/19 09:42:37;;;;;;;5.40;3.12;;;;;;;29.94;29.43;99657.28;1745893;81;21148;-47
2022/07/19 09:45:11;;;;;;;8.05;2.95;;;;;;;30.35;27.96;99663.73;1715048;83;20969;-49
2022/07/19 09:47:43;;;;;;;6.08;2.90;;;;;;;30.87;30.16;99660.79;1720968;83;20993;-43
2022/07/19 09:50:14;;;;;;;5.17;3.10;;;;;;;31.28;29.70;99662.45;1697278;83;21036;-45
2022/07/19 09:52:40;;;;;;;3.50;2.90;;;;;;;31.58;27.96;99659.28;1718046;82;20963;-46
2022/07/19 09:55:08;;;;;;;9.10;3.12;;;;;;;32.02;27.72;99660.41;1722877;82;20970;-45
2022/07/19 09:57:42;;;;;;;6.80;2.95;;;;;;;32.48;26.62;99656.61;1701822;83;20977;-48
2022/07/19 10:00:10;;;;;;;6.75;2.75;;;;;;;32.48;26.62;99656.61;1692760;83;21419;-49
2022/07/19 10:02:40;;;;;;;4.25;3.00;;;;;;;33.01;26.46;99658.13;1725108;82;20951;-49
2022/07/19 10:05:09;;;;;;;4.92;2.62;;;;;;;33.38;26.29;99662.85;1725630;82;21123;-53
2022/07/19 10:07:35;;;;;;;4.12;2.80;;;;;;;33.40;23.84;99659.36;1709722;82;21426;-41
2022/07/19 10:10:10;;;;;;;4.95;2.92;;;;;;;33.74;25.07;99653.89;1692228;83;21457;-45
2022/07/19 10:12:38;;;;;;;5.25;2.80;;;;;;;33.77;24.31;99643.89;1717275;83;20996;-40
2022/07/19 10:15:06;;;;;;;3.47;2.42;;;;;;;34.06;23.30;99658.34;1711930;83;21474;-53
2022/07/19 10:18:10;;;;;;;2.85;2.62;;;;;;;34.23;23.56;99653.93;1680643;85;21065;-43
2022/07/19 10:20:38;;;;;;;4.87;2.95;;;;;;;34.37;23.50;99654.05;1662053;85;21160;-39
2022/07/19 10:23:04;;;;;;;2.92;2.62;;;;;;;34.69;22.84;99649.73;1681468;85;20972;-43
2022/07/19 10:25:47;;;;;;;4.53;2.92;;;;;;;34.83;22.83;99650.32;1664799;85;20991;-37
2022/07/19 10:28:34;;;;;;;3.70;2.45;;;;;;;35.07;22.35;99644.34;1676158;85;20999;-41
2022/07/19 10:31:00;;;;;;;3.45;2.33;;;;;;;35.14;22.01;99644.23;1665380;85;21035;-48
2022/07/19 10:33:30;;;;;;;3.67;2.40;;;;;;;35.53;21.60;99652.27;1638437;86;21033;-43
2022/07/19 10:35:57;;;;;;;3.58;2.90;;;;;;;35.48;21.54;99648.59;1672161;85;21023;-50
2022/07/19 10:38:23;;;;;;;4.25;2.70;;;;;;;35.59;21.38;99640.08;1653955;85;21140;-44
2022/07/19 10:40:56;;;;;;;4.28;2.47;;;;;;;35.86;21.13;99645.87;1716070;83;21451;-40
2022/07/19 10:43:20;;;;;;;4.85;2.95;;;;;;;36.00;21.26;99639.56;1722402;82;21059;-51
2022/07/19 10:46:04;;;;;;;3.20;2.47;;;;;;;35.87;19.48;99637.94;1726447;82;20984;-34
2022/07/19 10:48:50;;;;;;;3.12;2.30;;;;;;;36.14;20.30;99646.41;1698725;83;20960;-44
2022/07/19 10:51:33;;;;;;;5.70;2.30;;;;;;;36.44;20.15;99648.07;1707594;83;20988;-44
2022/07/19 10:54:07;;;;;;;7.87;2.60;;;;;;;35.83;20.11;99631.30;1717290;83;21447;-43
2022/07/19 10:56:39;;;;;;;3.62;2.50;;;;;;;36.21;20.47;99648.49;1698995;83;20933;-42
2022/07/19 10:59:10;;;;;;;5.45;2.42;;;;;;;36.11;19.43;99642.27;1728306;82;21457;-47
2022/07/19 11:01:38;;;;;;;3.12;2.50;;;;;;;36.02;19.52;99630.05;1657595;86;21011;-48
2022/07/19 11:04:32;;;;;;;5.22;2.55;;;;;;;36.46;19.77;99641.29;1658733;85;20972;-55
2022/07/19 11:07:17;;;;;;;2.77;2.52;;;;;;;36.41;19.87;99634.89;1654417;86;21578;-45
2022/07/19 11:09:47;;;;;;;4.35;2.72;;;;;;;36.42;19.37;99629.69;1653316;85;21437;-52
2022/07/19 11:12:33;;;;;;;5.28;2.47;;;;;;;36.54;19.67;99624.16;1659216;85;21501;-45
2022/07/19 11:15:03;;;;;;;3.10;2.40;;;;;;;37.02;19.44;99633.72;1658540;86;20984;-41
2022/07/19 11:17:29;;;;;;;4.28;2.80;;;;;;;36.68;18.67;99641.42;1665139;85;21003;-45
2022/07/19 11:20:07;;;;;;;;;;;;;;;36.52;19.52;99625.77;1656768;87;20963;-40
2022/07/19 11:22:37;;;;;;;8.70;2.87;;;;;;;36.64;18.40;99623.80;1649384;85;20452;-50
2022/07/19 11:25:04;;;;;;;3.35;2.40;;;;;;;36.88;19.21;99623.11;1658027;85;20955;-49
2022/07/19 11:27:32;;;;;;;4.90;2.67;;;;;;;37.24;18.63;99625.57;1702375;83;21595;-48
2022/07/19 11:30:02;;;;;;;2.85;2.60;;;;;;;37.49;18.68;99622.36;1728042;82;21415;-44
2022/07/19 11:32:28;;;;;;;4.22;2.42;;;;;;;37.40;18.48;99621.14;1717930;82;20955;-38
2022/07/19 11:35:01;;;;;;;2.98;2.67;;;;;;;37.30;19.21;99615.53;1718192;82;20981;-42
2022/07/19 11:37:31;;;;;;;2.85;2.40;;;;;;;37.08;18.94;99614.37;1716841;82;21015;-49